sensor_id;sensor_type;location;lat;lon;timestamp;temperature;humidity
5924;DHT22;2987;50.884;14.818;2023-02-15T00:01:33;2.50;99.90
5924;DHT22;2987;50.884;14.818;2023-02-15T00:04:00;2.60;99.90
5924;DHT22;2987;50.884;14.818;2023-02-15T00:06:26;2.50;99.90
5924;DHT22;2987;50.884;14.818;2023-02-15T00:08:54;2.60;99.90
5924;DHT22;2987;50.884;14.818;2023-02-15T00:11:21;2.70;99.90
5924;DHT22;2987;50.884;14.818;2023-02-15T00:14:11;2.60;99.90
5924;DHT22;2987;50.884;14.818;2023-02-15T00:16:39;2.60;99.90
5924;DHT22;2987;50.884;14.818;2023-02-15T00:19:08;2.40;99.90
5924;DHT22;2987;50.884;14.818;2023-02-15T00:21:36;2.20;99.90
5924;DHT22;2987;50.884;14.818;2023-02-15T00:24:04;2.20;99.90
5924;DHT22;2987;50.884;14.818;2023-02-15T00:26:31;2.70;99.90
5924;DHT22;2987;50.884;14.818;2023-02-15T00:28:58;2.40;99.90
5924;DHT22;2987;50.884;14.818;2023-02-15T00:31:30;2.20;99.90
5924;DHT22;2987;50.884;14.818;2023-02-15T00:34:03;2.10;99.90
5924;DHT22;2987;50.884;14.818;2023-02-15T00:36:30;2.40;99.90
5924;DHT22;2987;50.884;14.818;2023-02-15T00:38:56;2.10;99.90
5924;DHT22;2987;50.884;14.818;2023-02-15T00:41:23;2.30;99.90
5924;DHT22;2987;50.884;14.818;2023-02-15T00:43:49;2.30;99.90
5924;DHT22;2987;50.884;14.818;2023-02-15T00:46:19;2.50;99.90
5924;DHT22;2987;50.884;14.818;2023-02-15T00:48:45;2.40;99.90
5924;DHT22;2987;50.884;14.818;2023-02-15T00:51:11;2.40;99.90
5924;DHT22;2987;50.884;14.818;2023-02-15T00:53:37;2.40;99.90
5924;DHT22;2987;50.884;14.818;2023-02-15T00:56:03;2.20;99.90
5924;DHT22;2987;50.884;14.818;2023-02-15T00:58:30;1.90;99.90
5924;DHT22;2987;50.884;14.818;2023-02-15T01:01:04;1.80;99.90
5924;DHT22;2987;50.884;14.818;2023-02-15T01:03:31;1.90;99.90
5924;DHT22;2987;50.884;14.818;2023-02-15T01:05:57;1.90;99.90
5924;DHT22;2987;50.884;14.818;2023-02-15T01:08:23;2.40;99.90
5924;DHT22;2987;50.884;14.818;2023-02-15T01:10:50;2.20;99.90
5924;DHT22;2987;50.884;14.818;2023-02-15T01:13:16;2.40;99.90
5924;DHT22;2987;50.884;14.818;2023-02-15T01:15:43;2.20;99.90
5924;DHT22;2987;50.884;14.818;2023-02-15T01:18:10;2.40;99.90
5924;DHT22;2987;50.884;14.818;2023-02-15T01:20:39;2.40;99.90
5924;DHT22;2987;50.884;14.818;2023-02-15T01:23:07;2.30;99.90
5924;DHT22;2987;50.884;14.818;2023-02-15T01:25:34;2.10;99.90
5924;DHT22;2987;50.884;14.818;2023-02-15T01:28:01;2.40;99.90
5924;DHT22;2987;50.884;14.818;2023-02-15T01:30:28;2.20;99.90
5924;DHT22;2987;50.884;14.818;2023-02-15T01:32:56;2.20;99.90
5924;DHT22;2987;50.884;14.818;2023-02-15T01:35:22;2.10;99.90
5924;DHT22;2987;50.884;14.818;2023-02-15T01:37:48;2.40;99.90
5924;DHT22;2987;50.884;14.818;2023-02-15T01:40:16;2.40;99.90
5924;DHT22;2987;50.884;14.818;2023-02-15T01:42:44;2.00;99.90
5924;DHT22;2987;50.884;14.818;2023-02-15T01:45:26;1.80;99.90
5924;DHT22;2987;50.884;14.818;2023-02-15T01:50:44;1.90;99.90
5924;DHT22;2987;50.884;14.818;2023-02-15T01:53:16;2.00;99.90
5924;DHT22;2987;50.884;14.818;2023-02-15T01:58:20;2.30;99.90
5924;DHT22;2987;50.884;14.818;2023-02-15T02:00:47;1.90;99.90
5924;DHT22;2987;50.884;14.818;2023-02-15T02:03:13;2.20;99.90
5924;DHT22;2987;50.884;14.818;2023-02-15T02:05:40;2.10;99.90
5924;DHT22;2987;50.884;14.818;2023-02-15T02:08:08;1.80;99.90
5924;DHT22;2987;50.884;14.818;2023-02-15T02:10:36;1.90;99.90
5924;DHT22;2987;50.884;14.818;2023-02-15T02:13:05;2.20;99.90
5924;DHT22;2987;50.884;14.818;2023-02-15T02:15:47;1.90;99.90
5924;DHT22;2987;50.884;14.818;2023-02-15T02:21:45;1.80;99.90
5924;DHT22;2987;50.884;14.818;2023-02-15T02:27:32;1.80;99.90
5924;DHT22;2987;50.884;14.818;2023-02-15T02:35:46;1.80;99.90
5924;DHT22;2987;50.884;14.818;2023-02-15T02:41:12;2.20;99.90
5924;DHT22;2987;50.884;14.818;2023-02-15T02:43:59;1.80;99.90
5924;DHT22;2987;50.884;14.818;2023-02-15T02:46:32;2.10;99.90
5924;DHT22;2987;50.884;14.818;2023-02-15T02:49:02;1.80;99.90
5924;DHT22;2987;50.884;14.818;2023-02-15T02:51:30;2.20;99.90
5924;DHT22;2987;50.884;14.818;2023-02-15T02:54:00;1.90;99.90
5924;DHT22;2987;50.884;14.818;2023-02-15T02:56:36;1.80;99.90
5924;DHT22;2987;50.884;14.818;2023-02-15T02:59:25;2.00;99.90
5924;DHT22;2987;50.884;14.818;2023-02-15T03:02:04;1.90;99.90
5924;DHT22;2987;50.884;14.818;2023-02-15T03:04:36;2.10;99.90
5924;DHT22;2987;50.884;14.818;2023-02-15T03:09:37;2.10;99.90
5924;DHT22;2987;50.884;14.818;2023-02-15T03:12:11;1.80;99.90
5924;DHT22;2987;50.884;14.818;2023-02-15T03:14:45;2.10;99.90
5924;DHT22;2987;50.884;14.818;2023-02-15T03:17:13;1.80;99.90
5924;DHT22;2987;50.884;14.818;2023-02-15T03:19:40;2.10;99.90
5924;DHT22;2987;50.884;14.818;2023-02-15T03:22:19;1.60;99.90
5924;DHT22;2987;50.884;14.818;2023-02-15T03:24:56;1.60;99.90
5924;DHT22;2987;50.884;14.818;2023-02-15T03:27:28;1.50;99.90
5924;DHT22;2987;50.884;14.818;2023-02-15T03:30:02;1.60;99.90
5924;DHT22;2987;50.884;14.818;2023-02-15T03:32:32;1.60;99.90
5924;DHT22;2987;50.884;14.818;2023-02-15T03:34:59;2.10;99.90
5924;DHT22;2987;50.884;14.818;2023-02-15T03:37:32;1.60;99.90
5924;DHT22;2987;50.884;14.818;2023-02-15T03:40:08;1.80;99.90
5924;DHT22;2987;50.884;14.818;2023-02-15T03:43:07;1.90;99.90
5924;DHT22;2987;50.884;14.818;2023-02-15T03:45:38;1.80;99.90
5924;DHT22;2987;50.884;14.818;2023-02-15T03:48:07;1.90;99.90
5924;DHT22;2987;50.884;14.818;2023-02-15T03:50:36;2.10;99.90
5924;DHT22;2987;50.884;14.818;2023-02-15T03:53:25;1.60;99.90
5924;DHT22;2987;50.884;14.818;2023-02-15T03:55:54;1.60;99.90
5924;DHT22;2987;50.884;14.818;2023-02-15T03:58:21;2.10;99.90
5924;DHT22;2987;50.884;14.818;2023-02-15T04:01:18;1.60;99.90
5924;DHT22;2987;50.884;14.818;2023-02-15T04:04:14;2.10;99.90
5924;DHT22;2987;50.884;14.818;2023-02-15T04:06:44;1.60;99.90
5924;DHT22;2987;50.884;14.818;2023-02-15T04:09:11;2.00;99.90
5924;DHT22;2987;50.884;14.818;2023-02-15T04:11:56;1.80;99.90
5924;DHT22;2987;50.884;14.818;2023-02-15T04:14:22;1.70;99.90
5924;DHT22;2987;50.884;14.818;2023-02-15T04:17:08;1.90;99.90
5924;DHT22;2987;50.884;14.818;2023-02-15T04:19:38;2.10;99.90
5924;DHT22;2987;50.884;14.818;2023-02-15T04:22:22;1.60;99.90
5924;DHT22;2987;50.884;14.818;2023-02-15T04:25:07;1.60;99.90
5924;DHT22;2987;50.884;14.818;2023-02-15T04:27:37;1.60;99.90
5924;DHT22;2987;50.884;14.818;2023-02-15T04:30:04;1.60;99.90
5924;DHT22;2987;50.884;14.818;2023-02-15T04:32:30;1.90;99.90
5924;DHT22;2987;50.884;14.818;2023-02-15T04:34:56;1.50;99.90
5924;DHT22;2987;50.884;14.818;2023-02-15T04:37:22;1.60;99.90
5924;DHT22;2987;50.884;14.818;2023-02-15T04:39:48;1.60;99.90
5924;DHT22;2987;50.884;14.818;2023-02-15T04:42:15;1.60;99.90
5924;DHT22;2987;50.884;14.818;2023-02-15T04:44:42;1.60;99.90
5924;DHT22;2987;50.884;14.818;2023-02-15T04:47:09;1.60;99.90
5924;DHT22;2987;50.884;14.818;2023-02-15T04:49:35;1.60;99.90
5924;DHT22;2987;50.884;14.818;2023-02-15T04:52:01;1.60;99.90
5924;DHT22;2987;50.884;14.818;2023-02-15T04:54:27;1.50;99.90
5924;DHT22;2987;50.884;14.818;2023-02-15T04:56:53;1.50;99.90
5924;DHT22;2987;50.884;14.818;2023-02-15T04:59:19;1.40;99.90
5924;DHT22;2987;50.884;14.818;2023-02-15T05:01:46;1.30;99.90
5924;DHT22;2987;50.884;14.818;2023-02-15T05:04:12;1.30;99.90
5924;DHT22;2987;50.884;14.818;2023-02-15T05:06:38;1.40;99.90
5924;DHT22;2987;50.884;14.818;2023-02-15T05:09:04;1.30;99.90
5924;DHT22;2987;50.884;14.818;2023-02-15T05:11:30;1.50;99.90
5924;DHT22;2987;50.884;14.818;2023-02-15T05:13:57;1.40;99.90
5924;DHT22;2987;50.884;14.818;2023-02-15T05:16:23;1.50;99.90
5924;DHT22;2987;50.884;14.818;2023-02-15T05:18:49;1.30;99.90
5924;DHT22;2987;50.884;14.818;2023-02-15T05:21:15;1.60;99.90
5924;DHT22;2987;50.884;14.818;2023-02-15T05:23:42;1.40;99.90
5924;DHT22;2987;50.884;14.818;2023-02-15T05:26:12;1.30;99.90
5924;DHT22;2987;50.884;14.818;2023-02-15T05:28:58;1.30;99.90
5924;DHT22;2987;50.884;14.818;2023-02-15T05:31:24;1.40;99.90
5924;DHT22;2987;50.884;14.818;2023-02-15T05:33:51;1.30;99.90
5924;DHT22;2987;50.884;14.818;2023-02-15T05:36:17;1.40;99.90
5924;DHT22;2987;50.884;14.818;2023-02-15T05:38:44;1.30;99.90
5924;DHT22;2987;50.884;14.818;2023-02-15T05:41:11;1.40;99.90
5924;DHT22;2987;50.884;14.818;2023-02-15T05:43:37;1.30;99.90
5924;DHT22;2987;50.884;14.818;2023-02-15T05:46:04;1.50;99.90
5924;DHT22;2987;50.884;14.818;2023-02-15T05:48:31;1.50;99.90
5924;DHT22;2987;50.884;14.818;2023-02-15T05:51:02;1.40;99.90
5924;DHT22;2987;50.884;14.818;2023-02-15T05:53:30;1.40;99.90
5924;DHT22;2987;50.884;14.818;2023-02-15T05:55:57;1.60;99.90
5924;DHT22;2987;50.884;14.818;2023-02-15T05:58:26;1.30;99.90
5924;DHT22;2987;50.884;14.818;2023-02-15T06:00:53;1.30;99.90
5924;DHT22;2987;50.884;14.818;2023-02-15T06:03:19;1.60;99.90
5924;DHT22;2987;50.884;14.818;2023-02-15T06:05:46;1.40;99.90
5924;DHT22;2987;50.884;14.818;2023-02-15T06:08:12;1.30;99.90
5924;DHT22;2987;50.884;14.818;2023-02-15T06:10:38;1.60;99.90
5924;DHT22;2987;50.884;14.818;2023-02-15T06:13:06;1.40;99.90
5924;DHT22;2987;50.884;14.818;2023-02-15T06:15:32;1.30;99.90
5924;DHT22;2987;50.884;14.818;2023-02-15T06:17:59;1.60;99.90
5924;DHT22;2987;50.884;14.818;2023-02-15T06:20:25;1.30;99.90
5924;DHT22;2987;50.884;14.818;2023-02-15T06:22:52;1.50;99.90
5924;DHT22;2987;50.884;14.818;2023-02-15T06:25:18;1.40;99.90
5924;DHT22;2987;50.884;14.818;2023-02-15T06:27:44;1.30;99.90
5924;DHT22;2987;50.884;14.818;2023-02-15T06:30:11;1.30;99.90
5924;DHT22;2987;50.884;14.818;2023-02-15T06:32:38;1.30;99.90
5924;DHT22;2987;50.884;14.818;2023-02-15T06:35:04;1.30;99.90
5924;DHT22;2987;50.884;14.818;2023-02-15T06:37:31;1.30;99.90
5924;DHT22;2987;50.884;14.818;2023-02-15T06:39:57;1.50;99.90
5924;DHT22;2987;50.884;14.818;2023-02-15T06:42:24;1.40;99.90
5924;DHT22;2987;50.884;14.818;2023-02-15T06:44:50;1.30;99.90
5924;DHT22;2987;50.884;14.818;2023-02-15T06:47:16;1.50;99.90
5924;DHT22;2987;50.884;14.818;2023-02-15T06:49:42;1.30;99.90
5924;DHT22;2987;50.884;14.818;2023-02-15T06:52:09;1.30;99.90
5924;DHT22;2987;50.884;14.818;2023-02-15T06:54:35;1.30;99.90
5924;DHT22;2987;50.884;14.818;2023-02-15T06:57:01;1.40;99.90
5924;DHT22;2987;50.884;14.818;2023-02-15T06:59:27;1.40;99.90
5924;DHT22;2987;50.884;14.818;2023-02-15T07:01:53;1.30;99.90
5924;DHT22;2987;50.884;14.818;2023-02-15T07:04:20;1.60;99.90
5924;DHT22;2987;50.884;14.818;2023-02-15T07:06:46;1.30;99.90
5924;DHT22;2987;50.884;14.818;2023-02-15T07:09:12;1.40;99.90
5924;DHT22;2987;50.884;14.818;2023-02-15T07:11:38;1.30;99.90
5924;DHT22;2987;50.884;14.818;2023-02-15T07:14:25;1.40;99.90
5924;DHT22;2987;50.884;14.818;2023-02-15T07:16:51;1.30;99.90
5924;DHT22;2987;50.884;14.818;2023-02-15T07:19:17;1.60;99.90
5924;DHT22;2987;50.884;14.818;2023-02-15T07:21:43;1.90;99.90
5924;DHT22;2987;50.884;14.818;2023-02-15T07:24:11;1.60;99.90
5924;DHT22;2987;50.884;14.818;2023-02-15T07:26:37;1.80;99.90
5924;DHT22;2987;50.884;14.818;2023-02-15T07:29:03;2.00;99.90
5924;DHT22;2987;50.884;14.818;2023-02-15T07:31:29;1.80;99.90
5924;DHT22;2987;50.884;14.818;2023-02-15T07:33:55;2.00;99.90
5924;DHT22;2987;50.884;14.818;2023-02-15T07:36:21;1.80;99.90
5924;DHT22;2987;50.884;14.818;2023-02-15T07:38:48;1.80;99.90
5924;DHT22;2987;50.884;14.818;2023-02-15T07:41:15;2.10;99.90
5924;DHT22;2987;50.884;14.818;2023-02-15T07:43:44;2.50;99.90
5924;DHT22;2987;50.884;14.818;2023-02-15T07:46:12;2.60;99.90
5924;DHT22;2987;50.884;14.818;2023-02-15T07:48:41;2.70;99.90
5924;DHT22;2987;50.884;14.818;2023-02-15T07:51:09;2.70;99.90
5924;DHT22;2987;50.884;14.818;2023-02-15T07:53:37;2.70;99.90
5924;DHT22;2987;50.884;14.818;2023-02-15T07:56:06;3.20;99.90
5924;DHT22;2987;50.884;14.818;2023-02-15T07:58:33;3.00;99.90
5924;DHT22;2987;50.884;14.818;2023-02-15T08:01:23;3.00;99.90
5924;DHT22;2987;50.884;14.818;2023-02-15T08:03:49;3.40;99.90
5924;DHT22;2987;50.884;14.818;2023-02-15T08:06:16;3.10;99.90
5924;DHT22;2987;50.884;14.818;2023-02-15T08:08:42;3.20;99.90
5924;DHT22;2987;50.884;14.818;2023-02-15T08:11:20;3.40;99.90
5924;DHT22;2987;50.884;14.818;2023-02-15T08:14:08;3.50;99.90
5924;DHT22;2987;50.884;14.818;2023-02-15T08:16:37;3.70;99.90
5924;DHT22;2987;50.884;14.818;2023-02-15T08:19:17;3.80;99.90
5924;DHT22;2987;50.884;14.818;2023-02-15T08:21:46;3.70;99.90
5924;DHT22;2987;50.884;14.818;2023-02-15T08:24:14;3.30;99.90
5924;DHT22;2987;50.884;14.818;2023-02-15T08:26:41;3.30;99.90
5924;DHT22;2987;50.884;14.818;2023-02-15T08:29:08;3.60;99.90
5924;DHT22;2987;50.884;14.818;2023-02-15T08:31:35;3.70;99.90
5924;DHT22;2987;50.884;14.818;2023-02-15T08:34:04;3.80;99.90
5924;DHT22;2987;50.884;14.818;2023-02-15T08:36:31;3.20;99.90
5924;DHT22;2987;50.884;14.818;2023-02-15T08:38:58;3.40;99.90
5924;DHT22;2987;50.884;14.818;2023-02-15T08:41:29;3.40;99.90
5924;DHT22;2987;50.884;14.818;2023-02-15T08:43:57;3.40;99.90
5924;DHT22;2987;50.884;14.818;2023-02-15T08:46:27;3.20;99.90
5924;DHT22;2987;50.884;14.818;2023-02-15T08:48:54;3.70;99.90
5924;DHT22;2987;50.884;14.818;2023-02-15T08:51:23;3.70;99.90
5924;DHT22;2987;50.884;14.818;2023-02-15T08:53:52;3.70;99.90
5924;DHT22;2987;50.884;14.818;2023-02-15T08:56:25;3.60;99.90
5924;DHT22;2987;50.884;14.818;2023-02-15T08:58:55;3.50;99.90
5924;DHT22;2987;50.884;14.818;2023-02-15T09:01:24;3.70;99.90
5924;DHT22;2987;50.884;14.818;2023-02-15T09:03:54;3.80;99.90
5924;DHT22;2987;50.884;14.818;2023-02-15T09:06:22;3.60;99.90
5924;DHT22;2987;50.884;14.818;2023-02-15T09:08:50;3.50;99.90
5924;DHT22;2987;50.884;14.818;2023-02-15T09:11:21;3.70;99.90
5924;DHT22;2987;50.884;14.818;2023-02-15T09:13:52;3.70;99.90
5924;DHT22;2987;50.884;14.818;2023-02-15T09:16:21;3.70;99.90
5924;DHT22;2987;50.884;14.818;2023-02-15T09:18:49;3.60;99.90
5924;DHT22;2987;50.884;14.818;2023-02-15T09:21:18;3.70;99.90
5924;DHT22;2987;50.884;14.818;2023-02-15T09:23:47;3.60;99.90
5924;DHT22;2987;50.884;14.818;2023-02-15T09:26:16;3.90;99.90
5924;DHT22;2987;50.884;14.818;2023-02-15T09:28:42;3.80;99.90
5924;DHT22;2987;50.884;14.818;2023-02-15T09:31:16;4.00;99.90
5924;DHT22;2987;50.884;14.818;2023-02-15T09:34:07;4.20;99.90
5924;DHT22;2987;50.884;14.818;2023-02-15T09:36:35;4.20;99.90
5924;DHT22;2987;50.884;14.818;2023-02-15T09:39:16;4.50;99.90
5924;DHT22;2987;50.884;14.818;2023-02-15T09:41:50;4.60;99.90
5924;DHT22;2987;50.884;14.818;2023-02-15T09:44:47;4.70;99.90
5924;DHT22;2987;50.884;14.818;2023-02-15T09:50:33;5.40;99.90
5924;DHT22;2987;50.884;14.818;2023-02-15T09:53:28;5.80;99.90
5924;DHT22;2987;50.884;14.818;2023-02-15T10:01:30;6.30;99.90
5924;DHT22;2987;50.884;14.818;2023-02-15T10:04:22;6.20;99.90
5924;DHT22;2987;50.884;14.818;2023-02-15T10:07:17;6.40;99.90
5924;DHT22;2987;50.884;14.818;2023-02-15T10:12:53;6.00;99.90
5924;DHT22;2987;50.884;14.818;2023-02-15T10:21:12;5.10;99.90
5924;DHT22;2987;50.884;14.818;2023-02-15T10:26:40;5.40;99.90
5924;DHT22;2987;50.884;14.818;2023-02-15T10:29:21;5.40;99.90
5924;DHT22;2987;50.884;14.818;2023-02-15T10:32:16;6.00;99.90
5924;DHT22;2987;50.884;14.818;2023-02-15T10:34:52;5.90;99.90
5924;DHT22;2987;50.884;14.818;2023-02-15T10:43:12;6.00;99.90
5924;DHT22;2987;50.884;14.818;2023-02-15T10:54:09;6.20;99.90
5924;DHT22;2987;50.884;14.818;2023-02-15T10:56:46;6.30;99.90
5924;DHT22;2987;50.884;14.818;2023-02-15T11:02:33;5.70;99.90
5924;DHT22;2987;50.884;14.818;2023-02-15T11:05:24;5.60;99.90
5924;DHT22;2987;50.884;14.818;2023-02-15T11:13:22;5.80;99.90
5924;DHT22;2987;50.884;14.818;2023-02-15T11:15:53;6.40;99.90
5924;DHT22;2987;50.884;14.818;2023-02-15T11:18:41;6.20;99.90
5924;DHT22;2987;50.884;14.818;2023-02-15T11:21:31;6.30;99.90
5924;DHT22;2987;50.884;14.818;2023-02-15T11:24:10;6.10;99.90
5924;DHT22;2987;50.884;14.818;2023-02-15T11:26:43;5.90;99.90
5924;DHT22;2987;50.884;14.818;2023-02-15T11:32:02;5.40;99.90
5924;DHT22;2987;50.884;14.818;2023-02-15T11:34:35;5.40;99.90
5924;DHT22;2987;50.884;14.818;2023-02-15T11:37:08;5.70;99.90
5924;DHT22;2987;50.884;14.818;2023-02-15T11:39:36;5.70;99.90
5924;DHT22;2987;50.884;14.818;2023-02-15T11:42:11;5.70;99.90
5924;DHT22;2987;50.884;14.818;2023-02-15T11:47:19;6.00;99.90
5924;DHT22;2987;50.884;14.818;2023-02-15T11:49:46;5.80;99.90
5924;DHT22;2987;50.884;14.818;2023-02-15T11:52:14;5.90;99.90
5924;DHT22;2987;50.884;14.818;2023-02-15T11:54:43;5.50;99.90
5924;DHT22;2987;50.884;14.818;2023-02-15T11:57:32;5.40;99.90
5924;DHT22;2987;50.884;14.818;2023-02-15T12:02:42;5.20;99.90
5924;DHT22;2987;50.884;14.818;2023-02-15T12:05:15;4.80;99.90
5924;DHT22;2987;50.884;14.818;2023-02-15T12:07:55;4.80;99.90
5924;DHT22;2987;50.884;14.818;2023-02-15T12:10:28;4.80;99.90
5924;DHT22;2987;50.884;14.818;2023-02-15T12:13:11;4.90;99.90
5924;DHT22;2987;50.884;14.818;2023-02-15T12:15:42;4.80;99.90
5924;DHT22;2987;50.884;14.818;2023-02-15T12:18:33;4.80;99.90
5924;DHT22;2987;50.884;14.818;2023-02-15T12:21:05;5.00;99.90
5924;DHT22;2987;50.884;14.818;2023-02-15T12:23:33;4.80;99.90
5924;DHT22;2987;50.884;14.818;2023-02-15T12:26:01;4.80;99.90
5924;DHT22;2987;50.884;14.818;2023-02-15T12:28:35;4.90;99.90
5924;DHT22;2987;50.884;14.818;2023-02-15T12:31:07;4.80;99.90
5924;DHT22;2987;50.884;14.818;2023-02-15T12:33:43;4.90;99.90
5924;DHT22;2987;50.884;14.818;2023-02-15T12:36:18;4.80;99.90
5924;DHT22;2987;50.884;14.818;2023-02-15T12:39:16;4.80;99.90
5924;DHT22;2987;50.884;14.818;2023-02-15T12:44:23;5.00;99.90
5924;DHT22;2987;50.884;14.818;2023-02-15T12:49:43;4.90;99.90
5924;DHT22;2987;50.884;14.818;2023-02-15T12:54:47;4.80;99.90
5924;DHT22;2987;50.884;14.818;2023-02-15T12:57:31;4.80;99.90
5924;DHT22;2987;50.884;14.818;2023-02-15T12:59:59;4.90;99.90
5924;DHT22;2987;50.884;14.818;2023-02-15T13:02:43;4.70;99.90
5924;DHT22;2987;50.884;14.818;2023-02-15T13:05:30;4.90;99.90
5924;DHT22;2987;50.884;14.818;2023-02-15T13:08:01;4.80;99.90
5924;DHT22;2987;50.884;14.818;2023-02-15T13:10:36;4.90;99.90
5924;DHT22;2987;50.884;14.818;2023-02-15T13:13:10;4.50;99.90
5924;DHT22;2987;50.884;14.818;2023-02-15T13:15:40;4.50;99.90
5924;DHT22;2987;50.884;14.818;2023-02-15T13:18:15;4.60;99.90
5924;DHT22;2987;50.884;14.818;2023-02-15T13:20:43;4.60;99.90
5924;DHT22;2987;50.884;14.818;2023-02-15T13:23:26;4.50;99.90
5924;DHT22;2987;50.884;14.818;2023-02-15T13:25:56;4.50;99.90
5924;DHT22;2987;50.884;14.818;2023-02-15T13:28:31;4.70;99.90
5924;DHT22;2987;50.884;14.818;2023-02-15T13:31:01;4.60;99.90
5924;DHT22;2987;50.884;14.818;2023-02-15T13:33:33;4.60;99.90
5924;DHT22;2987;50.884;14.818;2023-02-15T13:36:23;4.50;99.90
5924;DHT22;2987;50.884;14.818;2023-02-15T13:39:23;4.60;99.90
5924;DHT22;2987;50.884;14.818;2023-02-15T13:45:04;4.80;99.90
5924;DHT22;2987;50.884;14.818;2023-02-15T13:47:44;4.60;99.90
5924;DHT22;2987;50.884;14.818;2023-02-15T13:50:31;4.80;99.90
5924;DHT22;2987;50.884;14.818;2023-02-15T13:53:22;4.60;99.90
5924;DHT22;2987;50.884;14.818;2023-02-15T14:01:46;4.60;99.90
5924;DHT22;2987;50.884;14.818;2023-02-15T14:10:30;4.20;99.90
5924;DHT22;2987;50.884;14.818;2023-02-15T14:21:17;4.20;99.90
5924;DHT22;2987;50.884;14.818;2023-02-15T14:27:19;4.00;99.90
5924;DHT22;2987;50.884;14.818;2023-02-15T14:32:49;4.00;99.90
5924;DHT22;2987;50.884;14.818;2023-02-15T14:35:20;4.00;99.90
5924;DHT22;2987;50.884;14.818;2023-02-15T14:38:19;4.00;99.90
5924;DHT22;2987;50.884;14.818;2023-02-15T14:41:11;3.90;99.90
5924;DHT22;2987;50.884;14.818;2023-02-15T14:44:03;4.00;99.90
5924;DHT22;2987;50.884;14.818;2023-02-15T14:47:00;4.00;99.90
5924;DHT22;2987;50.884;14.818;2023-02-15T14:51:53;3.60;99.90
5924;DHT22;2987;50.884;14.818;2023-02-15T14:59:56;3.70;99.90
5924;DHT22;2987;50.884;14.818;2023-02-15T15:02:45;3.70;99.90
5924;DHT22;2987;50.884;14.818;2023-02-15T15:05:20;3.80;99.90
5924;DHT22;2987;50.884;14.818;2023-02-15T15:07:51;3.50;99.90
5924;DHT22;2987;50.884;14.818;2023-02-15T15:10:36;3.40;99.90
5924;DHT22;2987;50.884;14.818;2023-02-15T15:13:34;3.10;99.90
5924;DHT22;2987;50.884;14.818;2023-02-15T15:16:25;3.20;99.90
5924;DHT22;2987;50.884;14.818;2023-02-15T15:18:51;3.20;99.90
5924;DHT22;2987;50.884;14.818;2023-02-15T15:52:23;2.60;99.90
5924;DHT22;2987;50.884;14.818;2023-02-15T15:54:51;2.40;99.90
5924;DHT22;2987;50.884;14.818;2023-02-15T15:57:29;2.40;99.90
5924;DHT22;2987;50.884;14.818;2023-02-15T15:59:56;2.50;99.90
5924;DHT22;2987;50.884;14.818;2023-02-15T16:02:27;2.40;99.90
5924;DHT22;2987;50.884;14.818;2023-02-15T16:04:53;2.40;99.90
5924;DHT22;2987;50.884;14.818;2023-02-15T16:07:24;2.00;99.90
5924;DHT22;2987;50.884;14.818;2023-02-15T16:09:57;2.20;99.90
5924;DHT22;2987;50.884;14.818;2023-02-15T16:12:26;2.10;99.90
5924;DHT22;2987;50.884;14.818;2023-02-15T16:14:54;2.20;99.90
5924;DHT22;2987;50.884;14.818;2023-02-15T16:17:25;1.90;99.90
5924;DHT22;2987;50.884;14.818;2023-02-15T16:20:03;1.60;99.90
5924;DHT22;2987;50.884;14.818;2023-02-15T16:22:32;1.80;99.90
5924;DHT22;2987;50.884;14.818;2023-02-15T16:30:25;1.90;99.90
5924;DHT22;2987;50.884;14.818;2023-02-15T16:32:55;1.90;99.90
5924;DHT22;2987;50.884;14.818;2023-02-15T16:35:28;1.60;99.90
5924;DHT22;2987;50.884;14.818;2023-02-15T16:37:54;1.60;99.90
5924;DHT22;2987;50.884;14.818;2023-02-15T16:42:52;1.70;99.90
5924;DHT22;2987;50.884;14.818;2023-02-15T16:45:20;1.60;99.90
5924;DHT22;2987;50.884;14.818;2023-02-15T16:47:50;1.80;99.90
5924;DHT22;2987;50.884;14.818;2023-02-15T16:50:23;1.70;99.90
5924;DHT22;2987;50.884;14.818;2023-02-15T16:52:51;1.70;99.90
5924;DHT22;2987;50.884;14.818;2023-02-15T16:55:22;1.60;99.90
5924;DHT22;2987;50.884;14.818;2023-02-15T16:57:50;1.40;99.90
5924;DHT22;2987;50.884;14.818;2023-02-15T17:00:20;1.50;99.90
5924;DHT22;2987;50.884;14.818;2023-02-15T17:05:59;1.40;99.90
5924;DHT22;2987;50.884;14.818;2023-02-15T17:08:41;1.60;99.90
5924;DHT22;2987;50.884;14.818;2023-02-15T17:16:31;1.10;99.90
5924;DHT22;2987;50.884;14.818;2023-02-15T17:19:01;1.10;99.90
5924;DHT22;2987;50.884;14.818;2023-02-15T17:21:33;1.10;99.90
5924;DHT22;2987;50.884;14.818;2023-02-15T17:24:02;1.30;99.90
5924;DHT22;2987;50.884;14.818;2023-02-15T17:26:34;1.30;99.90
5924;DHT22;2987;50.884;14.818;2023-02-15T17:29:11;1.10;99.90
5924;DHT22;2987;50.884;14.818;2023-02-15T17:31:38;1.20;99.90
5924;DHT22;2987;50.884;14.818;2023-02-15T17:34:05;0.80;99.90
5924;DHT22;2987;50.884;14.818;2023-02-15T17:36:32;1.30;99.90
5924;DHT22;2987;50.884;14.818;2023-02-15T17:39:04;1.20;99.90
5924;DHT22;2987;50.884;14.818;2023-02-15T17:41:34;1.10;99.90
5924;DHT22;2987;50.884;14.818;2023-02-15T17:44:01;1.10;99.90
5924;DHT22;2987;50.884;14.818;2023-02-15T17:46:33;1.30;99.90
5924;DHT22;2987;50.884;14.818;2023-02-15T17:49:01;1.10;99.90
5924;DHT22;2987;50.884;14.818;2023-02-15T17:51:27;1.10;99.90
5924;DHT22;2987;50.884;14.818;2023-02-15T17:53:54;1.10;99.90
5924;DHT22;2987;50.884;14.818;2023-02-15T17:56:40;1.10;99.90
5924;DHT22;2987;50.884;14.818;2023-02-15T17:59:06;0.90;99.90
5924;DHT22;2987;50.884;14.818;2023-02-15T18:01:34;1.10;99.90
5924;DHT22;2987;50.884;14.818;2023-02-15T18:04:21;1.20;99.90
5924;DHT22;2987;50.884;14.818;2023-02-15T18:07:09;1.10;99.90
5924;DHT22;2987;50.884;14.818;2023-02-15T18:09:53;1.20;99.90
5924;DHT22;2987;50.884;14.818;2023-02-15T18:12:38;1.10;99.90
5924;DHT22;2987;50.884;14.818;2023-02-15T18:15:05;1.20;99.90
5924;DHT22;2987;50.884;14.818;2023-02-15T18:17:35;1.10;99.90
5924;DHT22;2987;50.884;14.818;2023-02-15T18:20:06;1.10;99.90
5924;DHT22;2987;50.884;14.818;2023-02-15T18:22:32;1.40;99.90
5924;DHT22;2987;50.884;14.818;2023-02-15T18:24:59;1.10;99.90
5924;DHT22;2987;50.884;14.818;2023-02-15T18:27:25;1.10;99.90
5924;DHT22;2987;50.884;14.818;2023-02-15T18:29:51;1.10;99.90
5924;DHT22;2987;50.884;14.818;2023-02-15T18:32:22;1.00;99.90
5924;DHT22;2987;50.884;14.818;2023-02-15T18:34:54;1.10;99.90
5924;DHT22;2987;50.884;14.818;2023-02-15T18:37:21;1.10;99.90
5924;DHT22;2987;50.884;14.818;2023-02-15T18:39:49;1.10;99.90
5924;DHT22;2987;50.884;14.818;2023-02-15T18:42:23;1.40;99.90
5924;DHT22;2987;50.884;14.818;2023-02-15T18:44:55;1.10;99.90
5924;DHT22;2987;50.884;14.818;2023-02-15T18:47:23;0.90;99.90
5924;DHT22;2987;50.884;14.818;2023-02-15T18:49:49;1.00;99.90
5924;DHT22;2987;50.884;14.818;2023-02-15T18:52:19;1.20;99.90
5924;DHT22;2987;50.884;14.818;2023-02-15T18:54:48;1.10;99.90
5924;DHT22;2987;50.884;14.818;2023-02-15T18:57:16;1.10;99.90
5924;DHT22;2987;50.884;14.818;2023-02-15T18:59:42;1.10;99.90
5924;DHT22;2987;50.884;14.818;2023-02-15T19:02:13;1.10;99.90
5924;DHT22;2987;50.884;14.818;2023-02-15T19:04:40;0.90;99.90
5924;DHT22;2987;50.884;14.818;2023-02-15T19:07:16;0.90;99.90
5924;DHT22;2987;50.884;14.818;2023-02-15T19:09:46;1.00;99.90
5924;DHT22;2987;50.884;14.818;2023-02-15T19:12:14;1.00;99.90
5924;DHT22;2987;50.884;14.818;2023-02-15T19:14:40;1.20;99.90
5924;DHT22;2987;50.884;14.818;2023-02-15T19:17:15;0.80;99.90
5924;DHT22;2987;50.884;14.818;2023-02-15T19:19:42;0.90;99.90